Terminal Aerodrome Forecast
Issued by NWS Mt. Holly, NJ

Home | Current Version | Previous Version | Text Only | Print | Product List | Glossary On
Versions: 1 2 3 4 5 6 7 8 9 10 11 12 13 14 15 16 17 18 19 20 21 22 23
000
FTUS41 KPHI 250524
TAFPHL
TAF
KPHL 250524Z 2506/2612 08010KT 6SM -RA BR OVC009
     FM250800 07012KT 3SM -RA BR OVC009
      TEMPO 2508/2511 2SM RA BR
     FM251100 08009KT 2SM RA BR OVC007
     FM251500 07006KT P6SM OVC006 PROB30 2515/2521 5SM -SHRA
     FM252100 VRB02KT P6SM OVC010 PROB30 2521/2524 5SM -SHRA
     FM260300 30004KT P6SM BKN009
     FM260700 31007KT P6SM BKN050=

USA.gov is the U.S. government's official web portal to all federal, state and local government web resources and services.